createdAt,value
2022-12-31T00:01:33.815Z,15.90
2022-12-31T00:04:02.456Z,17.80
2022-12-31T00:06:33.135Z,19.10
2022-12-31T00:09:04.822Z,15.60
2022-12-31T00:11:35.687Z,13.30
2022-12-31T00:14:04.144Z,16.20
2022-12-31T00:16:37.268Z,15.50
2022-12-31T00:19:08.117Z,15.00
2022-12-31T00:21:36.821Z,15.80
2022-12-31T00:24:06.515Z,15.70
2022-12-31T00:26:36.561Z,16.90
2022-12-31T00:29:05.883Z,16.40
2022-12-31T00:31:37.940Z,15.40
2022-12-31T00:34:06.717Z,15.30
2022-12-31T00:36:37.722Z,17.20
2022-12-31T00:39:08.512Z,13.90
2022-12-31T00:41:37.649Z,15.10
2022-12-31T00:44:06.201Z,15.20
2022-12-31T00:49:03.119Z,18.20
2022-12-31T00:51:31.600Z,16.90
2022-12-31T00:54:00.417Z,16.40
2022-12-31T00:56:30.615Z,17.20
2022-12-31T00:59:00.435Z,15.70
2022-12-31T01:01:31.876Z,20.80
2022-12-31T01:04:03.929Z,18.80
2022-12-31T01:06:32.620Z,19.50
2022-12-31T01:09:01.091Z,16.90
2022-12-31T01:11:29.688Z,16.60
2022-12-31T01:14:05.011Z,17.40
2022-12-31T01:16:51.022Z,18.30
2022-12-31T01:19:26.542Z,17.40
2022-12-31T01:21:56.068Z,18.20
2022-12-31T01:24:24.553Z,18.10
2022-12-31T01:26:53.316Z,17.30
2022-12-31T01:29:21.791Z,20.70
2022-12-31T01:31:50.266Z,17.40
2022-12-31T01:34:19.082Z,18.60
2022-12-31T01:36:47.551Z,20.60
2022-12-31T01:39:15.943Z,18.80
2022-12-31T01:41:46.459Z,23.50
2022-12-31T01:44:23.632Z,18.70
2022-12-31T01:46:56.543Z,20.00
2022-12-31T01:49:28.436Z,17.70
2022-12-31T01:52:08.303Z,20.00
2022-12-31T01:54:42.447Z,17.80
2022-12-31T01:57:12.333Z,18.90
2022-12-31T01:59:41.511Z,19.10
2022-12-31T02:02:10.480Z,20.50
2022-12-31T02:04:39.487Z,19.70
2022-12-31T02:07:09.565Z,17.80
2022-12-31T02:09:40.289Z,19.00
2022-12-31T02:12:10.213Z,16.50
2022-12-31T02:14:44.854Z,19.30
2022-12-31T02:17:35.407Z,18.40
2022-12-31T02:20:15.584Z,19.70
2022-12-31T02:23:05.586Z,20.20
2022-12-31T02:25:51.918Z,19.20
2022-12-31T02:31:34.932Z,17.70
2022-12-31T02:34:08.654Z,19.30
2022-12-31T02:36:40.915Z,19.20
2022-12-31T02:39:11.933Z,21.60
2022-12-31T02:41:52.610Z,20.90
2022-12-31T02:44:29.709Z,17.30
2022-12-31T02:47:07.402Z,20.90
2022-12-31T02:49:42.708Z,18.90
2022-12-31T02:52:22.904Z,20.90
2022-12-31T02:55:02.036Z,19.70
2022-12-31T02:57:40.688Z,19.10
2022-12-31T03:00:31.575Z,19.50
2022-12-31T03:03:02.099Z,19.20
2022-12-31T03:05:34.852Z,17.90
2022-12-31T03:08:03.334Z,21.30
2022-12-31T03:10:31.719Z,20.00
2022-12-31T03:13:01.131Z,18.00
2022-12-31T03:15:34.139Z,18.90
2022-12-31T03:18:05.659Z,20.50
2022-12-31T03:20:58.704Z,20.00
2022-12-31T03:23:33.624Z,19.90
2022-12-31T03:26:04.155Z,20.60
2022-12-31T03:28:32.364Z,19.20
2022-12-31T03:31:03.053Z,20.50
2022-12-31T03:36:11.023Z,17.10
2022-12-31T03:38:40.042Z,20.80
2022-12-31T03:41:11.165Z,19.60
2022-12-31T03:43:39.413Z,19.80
2022-12-31T03:46:07.650Z,18.10
2022-12-31T03:48:35.871Z,21.00
2022-12-31T03:51:06.403Z,21.00
2022-12-31T03:53:35.784Z,18.80
2022-12-31T03:56:04.157Z,18.60
2022-12-31T03:58:32.434Z,19.20
2022-12-31T04:01:00.760Z,18.80
2022-12-31T04:03:29.026Z,19.90
2022-12-31T04:05:57.178Z,20.10
2022-12-31T04:08:25.566Z,19.40
2022-12-31T04:10:53.795Z,19.90
2022-12-31T04:13:21.927Z,20.80
2022-12-31T04:15:52.039Z,19.80
2022-12-31T04:18:20.445Z,19.80
2022-12-31T04:20:48.766Z,18.40
2022-12-31T04:23:17.015Z,19.80
2022-12-31T04:25:45.143Z,18.50
2022-12-31T04:28:13.333Z,17.40
2022-12-31T04:30:41.651Z,19.10
2022-12-31T04:33:09.797Z,18.00
2022-12-31T04:35:37.947Z,19.30
2022-12-31T04:38:06.718Z,20.20
2022-12-31T04:40:34.825Z,20.80
2022-12-31T04:43:02.991Z,17.90
2022-12-31T04:45:31.333Z,17.60
2022-12-31T04:47:59.604Z,17.60
2022-12-31T04:50:28.386Z,20.10
2022-12-31T04:52:56.534Z,19.70
2022-12-31T04:55:24.770Z,17.00
2022-12-31T04:57:52.907Z,17.40
2022-12-31T05:00:21.118Z,19.00
2022-12-31T05:02:49.468Z,18.40
2022-12-31T05:05:17.695Z,20.70
2022-12-31T05:07:45.833Z,18.00
2022-12-31T05:10:14.621Z,19.10
2022-12-31T05:12:42.698Z,17.20
2022-12-31T05:15:11.491Z,18.60
2022-12-31T05:17:39.730Z,21.20
2022-12-31T05:20:08.310Z,17.70
2022-12-31T05:22:36.422Z,17.00
2022-12-31T05:25:04.999Z,20.00
2022-12-31T05:27:34.046Z,18.80
2022-12-31T05:30:02.250Z,17.00
2022-12-31T05:32:30.536Z,18.60
2022-12-31T05:34:59.872Z,20.90
2022-12-31T05:37:29.839Z,17.80
2022-12-31T05:39:58.369Z,19.20
2022-12-31T05:42:26.618Z,18.00
2022-12-31T05:44:55.455Z,18.60
2022-12-31T05:47:23.939Z,18.50
2022-12-31T05:49:52.378Z,18.30
2022-12-31T05:52:21.370Z,20.10
2022-12-31T05:54:49.586Z,17.00
2022-12-31T05:57:17.755Z,19.40
2022-12-31T05:59:45.920Z,20.00
2022-12-31T06:02:14.252Z,17.30
2022-12-31T06:04:42.482Z,19.60
2022-12-31T06:07:10.760Z,16.00
2022-12-31T06:09:39.029Z,17.50
2022-12-31T06:12:07.939Z,16.80
2022-12-31T06:14:39.555Z,17.80
2022-12-31T06:17:10.698Z,17.70
2022-12-31T06:19:39.156Z,19.00
2022-12-31T06:22:07.409Z,16.90
2022-12-31T06:24:35.556Z,16.90
2022-12-31T06:27:03.890Z,16.70
2022-12-31T06:29:32.047Z,17.20
2022-12-31T06:32:00.219Z,17.50
2022-12-31T06:34:28.475Z,17.10
2022-12-31T06:36:56.606Z,17.20
2022-12-31T06:39:25.073Z,17.20
2022-12-31T06:41:53.513Z,16.40
2022-12-31T06:44:22.757Z,16.30
2022-12-31T06:46:51.088Z,15.70
2022-12-31T06:49:19.346Z,17.90
2022-12-31T06:51:47.935Z,14.20
2022-12-31T06:54:16.277Z,14.50
2022-12-31T06:56:44.704Z,16.50
2022-12-31T06:59:24.232Z,15.70
2022-12-31T07:02:05.614Z,16.80
2022-12-31T07:05:06.715Z,15.90
2022-12-31T07:07:38.411Z,16.90
2022-12-31T07:10:44.746Z,15.00
2022-12-31T07:13:34.659Z,15.20
2022-12-31T07:16:20.838Z,19.70
2022-12-31T07:19:03.001Z,15.90
2022-12-31T07:21:36.122Z,17.00
2022-12-31T07:24:07.202Z,16.10
2022-12-31T07:27:15.658Z,14.80
2022-12-31T07:30:01.888Z,17.30
2022-12-31T07:32:39.079Z,17.00
2022-12-31T07:35:23.946Z,16.50
2022-12-31T07:38:00.558Z,15.10
2022-12-31T07:40:35.659Z,16.80
2022-12-31T07:43:26.150Z,17.50
2022-12-31T07:46:26.377Z,14.70
2022-12-31T07:48:54.757Z,13.60
2022-12-31T07:51:23.138Z,14.90
2022-12-31T07:53:51.453Z,11.80
2022-12-31T07:56:19.630Z,13.70
2022-12-31T07:59:12.815Z,12.10
2022-12-31T08:02:19.102Z,13.00
2022-12-31T08:04:53.173Z,13.30
2022-12-31T08:07:25.693Z,14.90
2022-12-31T08:10:34.437Z,13.50
2022-12-31T08:13:05.849Z,13.20
2022-12-31T08:15:38.249Z,12.20
2022-12-31T08:18:08.324Z,12.60
2022-12-31T08:20:52.288Z,13.40
2022-12-31T08:23:28.644Z,13.10
2022-12-31T08:26:06.266Z,15.30
2022-12-31T08:28:55.077Z,14.70
2022-12-31T08:31:49.853Z,12.90
2022-12-31T08:34:39.785Z,9.90
2022-12-31T08:37:13.830Z,10.70
2022-12-31T08:39:48.570Z,9.90
2022-12-31T08:42:31.798Z,12.00
2022-12-31T08:45:25.979Z,13.40
2022-12-31T08:48:07.139Z,16.20
2022-12-31T08:50:35.841Z,14.50
2022-12-31T08:53:05.353Z,17.80
2022-12-31T08:55:34.005Z,15.90
2022-12-31T08:58:08.704Z,15.90
2022-12-31T09:00:38.867Z,15.20
2022-12-31T09:03:25.599Z,14.60
2022-12-31T09:06:06.628Z,12.90
2022-12-31T09:09:23.112Z,14.00
2022-12-31T09:12:06.974Z,12.70
2022-12-31T09:14:47.614Z,15.60
2022-12-31T09:17:39.759Z,14.20
2022-12-31T09:20:15.351Z,15.70
2022-12-31T09:22:43.901Z,17.80
2022-12-31T09:25:17.854Z,17.30
2022-12-31T09:27:58.372Z,20.50
2022-12-31T09:30:29.510Z,16.30
2022-12-31T09:33:32.884Z,17.80
2022-12-31T09:36:30.984Z,16.80
2022-12-31T09:39:26.160Z,18.00
2022-12-31T09:42:19.000Z,15.20
2022-12-31T09:45:06.034Z,13.10
2022-12-31T09:48:08.788Z,12.90
2022-12-31T09:51:06.306Z,18.80
2022-12-31T09:54:13.060Z,22.30
2022-12-31T09:57:10.720Z,17.60
2022-12-31T09:59:50.023Z,21.00
2022-12-31T10:02:27.639Z,19.70
2022-12-31T10:05:15.090Z,19.70
2022-12-31T10:08:08.315Z,15.80
2022-12-31T10:11:03.356Z,17.10
2022-12-31T10:13:40.990Z,15.00
2022-12-31T10:16:36.180Z,16.40
2022-12-31T10:19:13.211Z,17.00
2022-12-31T10:21:44.193Z,13.30
2022-12-31T10:24:20.520Z,14.50
2022-12-31T10:27:14.349Z,14.10
2022-12-31T10:30:13.513Z,15.60
2022-12-31T10:33:05.096Z,16.30
2022-12-31T10:35:59.705Z,15.90
2022-12-31T10:38:51.340Z,16.70
2022-12-31T10:41:34.896Z,18.20
2022-12-31T10:44:40.466Z,18.00
2022-12-31T10:47:36.880Z,17.40
2022-12-31T10:53:33.571Z,15.80
2022-12-31T10:56:35.874Z,16.70
2022-12-31T10:59:28.861Z,14.80
2022-12-31T11:02:38.413Z,13.80
2022-12-31T11:05:29.900Z,13.80
2022-12-31T11:08:40.202Z,15.00
2022-12-31T11:11:28.637Z,10.10
2022-12-31T11:14:21.505Z,14.90
2022-12-31T11:17:16.466Z,14.90
2022-12-31T11:20:03.895Z,11.70
2022-12-31T11:22:56.220Z,13.40
2022-12-31T11:25:40.335Z,13.60
2022-12-31T11:28:35.901Z,15.90
2022-12-31T11:31:42.408Z,14.40
2022-12-31T11:34:43.265Z,12.70
2022-12-31T11:37:35.263Z,15.50
2022-12-31T11:40:12.310Z,15.90
2022-12-31T11:42:59.392Z,15.60
2022-12-31T11:46:01.941Z,17.10
2022-12-31T11:48:48.639Z,15.10
2022-12-31T11:51:26.023Z,14.20
2022-12-31T11:54:12.700Z,12.90
2022-12-31T11:56:44.361Z,13.30
2022-12-31T11:59:19.270Z,16.90
2022-12-31T12:02:13.857Z,16.60
2022-12-31T12:04:43.192Z,17.80
2022-12-31T12:07:15.803Z,15.30
2022-12-31T12:09:45.623Z,15.70
2022-12-31T12:12:14.249Z,16.10
2022-12-31T12:14:47.072Z,13.70
2022-12-31T12:17:22.196Z,14.60
2022-12-31T12:19:55.137Z,17.20
2022-12-31T12:22:27.468Z,14.70
2022-12-31T12:25:02.053Z,16.60
2022-12-31T12:27:32.568Z,16.90
2022-12-31T12:30:20.225Z,16.70
2022-12-31T12:33:04.809Z,19.10
2022-12-31T12:35:35.243Z,15.10
2022-12-31T12:38:13.843Z,19.00
2022-12-31T12:40:42.382Z,17.20
2022-12-31T12:43:32.640Z,16.50
2022-12-31T12:46:31.574Z,20.80
2022-12-31T12:49:00.487Z,18.00
2022-12-31T12:52:16.038Z,17.50
2022-12-31T12:55:12.308Z,16.10
2022-12-31T12:58:06.254Z,20.80
2022-12-31T13:00:40.879Z,17.70
2022-12-31T13:03:26.554Z,20.60
2022-12-31T13:06:09.936Z,19.00
2022-12-31T13:08:41.030Z,21.00
2022-12-31T13:11:26.506Z,21.80
2022-12-31T13:14:17.212Z,20.90
2022-12-31T13:17:04.337Z,20.40
2022-12-31T13:20:09.921Z,18.40
2022-12-31T13:22:40.569Z,17.20
2022-12-31T13:25:18.156Z,16.50
2022-12-31T13:27:51.739Z,22.90
2022-12-31T13:30:25.441Z,23.20
2022-12-31T13:38:06.068Z,18.40
2022-12-31T13:40:55.623Z,14.70
2022-12-31T13:44:00.929Z,22.10
2022-12-31T13:46:48.576Z,18.40
2022-12-31T13:49:34.344Z,22.40
2022-12-31T13:52:18.430Z,16.30
2022-12-31T13:57:48.403Z,17.80
2022-12-31T14:00:30.545Z,18.10
2022-12-31T14:03:14.348Z,18.10
2022-12-31T14:06:01.327Z,16.90
2022-12-31T14:08:29.950Z,21.20
2022-12-31T14:11:14.369Z,16.20
2022-12-31T14:14:26.041Z,14.80
2022-12-31T14:17:17.802Z,14.20
2022-12-31T14:20:01.202Z,16.00
2022-12-31T14:22:52.229Z,15.20
2022-12-31T14:25:34.348Z,18.00
2022-12-31T14:28:07.205Z,16.10
2022-12-31T14:30:39.019Z,18.70
2022-12-31T14:33:38.930Z,18.00
2022-12-31T14:36:25.983Z,19.40
2022-12-31T14:39:06.654Z,16.50
2022-12-31T14:41:52.379Z,18.10
2022-12-31T14:44:26.443Z,19.10
2022-12-31T14:47:15.883Z,20.70
2022-12-31T14:49:47.213Z,22.40
2022-12-31T14:52:32.172Z,17.80
2022-12-31T14:55:22.169Z,18.20
2022-12-31T15:00:52.614Z,14.50
2022-12-31T15:03:44.724Z,15.00
2022-12-31T15:06:19.838Z,14.20
2022-12-31T15:09:15.915Z,13.70
2022-12-31T15:11:56.018Z,13.40
2022-12-31T15:14:37.471Z,15.00
2022-12-31T15:17:51.034Z,15.30
2022-12-31T15:20:38.064Z,19.90
2022-12-31T15:23:19.685Z,23.30
2022-12-31T15:25:51.927Z,18.10
2022-12-31T15:28:36.467Z,15.90
2022-12-31T15:31:18.807Z,19.00
2022-12-31T15:34:01.754Z,27.80
2022-12-31T15:36:32.948Z,31.50
2022-12-31T15:39:12.894Z,21.50
2022-12-31T15:42:27.279Z,25.30
2022-12-31T15:44:49.763Z,26.10
2022-12-31T15:47:35.615Z,17.20
2022-12-31T15:50:13.696Z,23.10
2022-12-31T15:52:46.743Z,23.10
2022-12-31T15:55:25.364Z,20.10
2022-12-31T15:57:58.640Z,21.90
2022-12-31T16:00:38.453Z,17.50
2022-12-31T16:03:21.602Z,17.90
2022-12-31T16:05:51.631Z,14.10
2022-12-31T16:08:22.894Z,16.30
2022-12-31T16:10:54.370Z,14.10
2022-12-31T16:13:25.491Z,18.20
2022-12-31T16:16:00.599Z,14.20
2022-12-31T16:18:44.254Z,13.50
2022-12-31T16:21:33.015Z,13.90
2022-12-31T16:24:21.924Z,17.50
2022-12-31T16:26:53.528Z,18.00
2022-12-31T16:29:24.363Z,18.40
2022-12-31T16:31:54.045Z,19.20
2022-12-31T16:34:25.367Z,18.50
2022-12-31T16:37:02.715Z,22.30
2022-12-31T16:39:36.099Z,26.90
2022-12-31T16:42:21.534Z,26.00
2022-12-31T16:44:55.752Z,22.20
2022-12-31T16:47:33.872Z,23.60
2022-12-31T16:50:13.561Z,18.00
2022-12-31T16:52:45.035Z,22.70
2022-12-31T16:55:24.592Z,20.20
2022-12-31T16:57:59.806Z,19.90
2022-12-31T17:00:29.255Z,18.70
2022-12-31T17:03:07.654Z,21.40
2022-12-31T17:05:54.370Z,17.60
2022-12-31T17:08:50.131Z,19.10
2022-12-31T17:11:25.432Z,16.90
2022-12-31T17:14:05.653Z,20.50
2022-12-31T17:16:41.235Z,17.30
2022-12-31T17:19:25.907Z,15.00
2022-12-31T17:21:54.356Z,13.90
2022-12-31T17:24:23.853Z,14.40
2022-12-31T17:26:52.931Z,12.80
2022-12-31T17:29:26.433Z,16.00
2022-12-31T17:32:01.283Z,12.50
2022-12-31T17:34:32.160Z,12.00
2022-12-31T17:37:14.357Z,17.90
2022-12-31T17:39:49.431Z,13.00
2022-12-31T17:42:37.340Z,16.90
2022-12-31T17:45:18.316Z,14.90
2022-12-31T17:47:52.611Z,11.00
2022-12-31T17:50:23.783Z,13.90
2022-12-31T17:53:11.241Z,15.90
2022-12-31T17:55:42.272Z,11.10
2022-12-31T17:58:22.469Z,11.30
2022-12-31T18:00:55.019Z,9.50
2022-12-31T18:03:23.525Z,8.10
2022-12-31T18:05:52.155Z,9.30
2022-12-31T18:08:20.654Z,7.90
2022-12-31T18:10:49.537Z,7.90
2022-12-31T18:13:22.579Z,8.50
2022-12-31T18:15:51.746Z,8.20
2022-12-31T18:18:28.754Z,9.20
2022-12-31T18:21:00.236Z,9.20
2022-12-31T18:23:34.602Z,9.80
2022-12-31T18:26:03.974Z,12.00
2022-12-31T18:28:32.405Z,8.00
2022-12-31T18:31:00.860Z,9.10
2022-12-31T18:33:29.348Z,9.80
2022-12-31T18:36:08.941Z,7.40
2022-12-31T18:38:39.429Z,8.90
2022-12-31T18:41:31.704Z,7.50
2022-12-31T18:44:00.041Z,7.30
2022-12-31T18:46:29.491Z,9.40
2022-12-31T18:48:57.924Z,8.40
2022-12-31T18:51:31.740Z,7.90
2022-12-31T18:54:02.100Z,7.20
2022-12-31T18:56:31.709Z,7.20
2022-12-31T18:59:00.423Z,4.10
2022-12-31T19:01:40.667Z,6.30
2022-12-31T19:04:19.944Z,6.10
2022-12-31T19:06:51.441Z,6.40
2022-12-31T19:09:43.899Z,4.10
2022-12-31T19:12:13.354Z,5.80
2022-12-31T19:19:38.043Z,4.80
2022-12-31T19:22:06.477Z,4.70
2022-12-31T19:24:34.828Z,8.40
2022-12-31T19:27:03.245Z,5.50
2022-12-31T19:29:31.956Z,6.80
2022-12-31T19:32:02.481Z,6.80
2022-12-31T19:34:31.304Z,8.20
2022-12-31T19:36:59.537Z,9.90
2022-12-31T19:39:27.957Z,23.50
2022-12-31T19:41:59.062Z,12.70
2022-12-31T19:44:27.949Z,10.40
2022-12-31T19:46:56.307Z,12.20
2022-12-31T19:49:24.636Z,10.50
2022-12-31T19:51:53.095Z,6.50
2022-12-31T19:54:21.384Z,6.60
2022-12-31T19:56:49.837Z,4.50
2022-12-31T19:59:18.150Z,5.20
2022-12-31T20:01:46.503Z,4.90
2022-12-31T20:04:14.930Z,5.30
2022-12-31T20:06:43.308Z,5.70
2022-12-31T20:09:12.733Z,5.00
2022-12-31T20:11:41.201Z,6.00
2022-12-31T20:14:09.536Z,5.70
2022-12-31T20:16:37.840Z,7.70
2022-12-31T20:19:06.301Z,6.90
2022-12-31T20:21:34.662Z,7.40
2022-12-31T20:24:03.080Z,8.90
2022-12-31T20:26:31.432Z,8.00
2022-12-31T20:28:59.731Z,6.60
2022-12-31T20:31:28.442Z,6.50
2022-12-31T20:33:56.759Z,5.50
2022-12-31T20:36:25.925Z,5.00
2022-12-31T20:38:54.225Z,5.20
2022-12-31T20:41:23.076Z,5.50
2022-12-31T20:43:52.041Z,5.00
2022-12-31T20:46:32.927Z,6.10
2022-12-31T20:49:02.913Z,4.30
2022-12-31T20:51:34.143Z,6.80
2022-12-31T20:54:08.797Z,9.00
2022-12-31T20:56:38.773Z,7.50
2022-12-31T20:59:09.940Z,5.00
2022-12-31T21:02:11.557Z,4.60
2022-12-31T21:04:27.847Z,3.70
2022-12-31T21:06:56.307Z,4.50
2022-12-31T21:09:25.091Z,6.50
2022-12-31T21:12:25.567Z,4.70
2022-12-31T21:14:53.853Z,12.90
2022-12-31T21:17:22.499Z,19.10
2022-12-31T21:19:51.423Z,18.10
2022-12-31T21:22:24.267Z,18.40
2022-12-31T21:24:52.959Z,16.30
2022-12-31T21:27:21.666Z,13.80
2022-12-31T21:30:17.154Z,9.60
2022-12-31T21:32:39.097Z,10.60
2022-12-31T21:35:41.294Z,9.70
2022-12-31T21:38:04.872Z,10.60
2022-12-31T21:40:33.529Z,9.20
2022-12-31T21:43:02.028Z,11.90
2022-12-31T21:45:30.417Z,11.20
2022-12-31T21:48:20.010Z,10.90
2022-12-31T21:50:50.966Z,12.70
2022-12-31T21:53:25.401Z,13.50
2022-12-31T21:56:08.638Z,15.10
2022-12-31T21:58:39.813Z,16.90
2022-12-31T22:01:50.714Z,22.40
2022-12-31T22:04:59.825Z,18.10
2022-12-31T22:07:07.555Z,30.70
2022-12-31T22:09:36.153Z,27.60
2022-12-31T22:12:04.789Z,36.20
2022-12-31T22:14:33.131Z,37.00
2022-12-31T22:17:01.938Z,37.70
2022-12-31T22:19:30.509Z,36.90
2022-12-31T22:21:59.047Z,37.00
2022-12-31T22:24:27.509Z,20.30
2022-12-31T22:26:57.056Z,17.70
2022-12-31T22:29:26.624Z,11.70
2022-12-31T22:32:00.891Z,10.50
2022-12-31T22:34:29.898Z,9.20
2022-12-31T22:37:09.017Z,12.30
2022-12-31T22:39:47.448Z,10.50
2022-12-31T22:42:15.903Z,9.60
2022-12-31T22:44:44.263Z,9.60
2022-12-31T22:47:12.941Z,12.30
2022-12-31T22:49:41.709Z,11.30
2022-12-31T22:52:10.287Z,11.90
2022-12-31T22:54:38.679Z,10.80
2022-12-31T22:57:07.102Z,14.70
2022-12-31T22:59:36.090Z,21.30
2022-12-31T23:02:04.404Z,156.20
2022-12-31T23:04:33.205Z,130.20
2022-12-31T23:07:01.891Z,65.00
2022-12-31T23:09:49.538Z,46.60
2022-12-31T23:12:18.271Z,100.30
2022-12-31T23:15:05.245Z,45.50
2022-12-31T23:17:52.273Z,23.10
2022-12-31T23:20:42.723Z,33.60
2022-12-31T23:23:16.569Z,25.10
2022-12-31T23:25:51.016Z,18.90
2022-12-31T23:28:24.449Z,16.90
2022-12-31T23:30:52.987Z,19.40
2022-12-31T23:33:23.953Z,17.60
2022-12-31T23:36:02.925Z,16.80
2022-12-31T23:38:31.515Z,11.50
2022-12-31T23:41:00.867Z,12.90
2022-12-31T23:43:29.519Z,13.40
2022-12-31T23:46:01.884Z,13.50
2022-12-31T23:48:30.421Z,12.40
2022-12-31T23:50:58.845Z,10.40
2022-12-31T23:53:27.067Z,14.00
2022-12-31T23:55:55.737Z,26.20
2022-12-31T23:58:25.297Z,48.40
